Latest Weather Observations for Kowen Forest

IDN60901

Issued at 4:11 am EDT Tuesday 21 January 2020 (issued every 10 minutes, with the page automatically refreshed every 10 minutes)

About weather observations | Map of Canberra area stations | Latest observations for Canberra area | Other Formats
Station Details ID: 250071 Name: KOWEN FOREST (PCS) Lat: -35.31 Lon: 149.32 Height: 720.0 m

Portable automatic weather stations (PAWS) are operated by other organisations, such as Fire and Emergency Services, and are included here by agreement. Portable stations may be deployed to a location for a short period and their location may be subject to change without notice. Wind observations from these stations are provided from heights of either three (3) or ten (10) metres above ground level (AGL).

Data from the previous 72 hours. | See also: Recent months for locations in Aust Capital Territory
Date/Time
EDT
Temp
°C
App
Temp
°C
Dew
Point
°C
Rel
Hum
%
Delta-T
°C
Wind Press
QNH
hPa
Press
MSL
hPa
Rain since
9am
mm
Dir  Spd
km/h
Gust
km/h
Spd
kts
Gust
kts
21/04:00am 13.9 11.9 10.1 78 2.0 NW 11 15 6 8 - - 3.6
21/03:50am 14.2 12.9 9.8 75 2.4 NW 7 11 4 6 - - 3.6
21/03:40am 14.3 12.2 9.7 74 2.5 NW 11 17 6 9 - - 3.6
21/03:30am 14.5 11.3 9.9 74 2.5 NW 17 24 9 13 - - 3.6
21/03:20am 14.7 11.1 9.7 72 2.7 NW 19 22 10 12 - - 3.6
21/03:10am 14.9 12.5 9.9 72 2.7 NW 13 17 7 9 - - 3.6
21/03:00am 15.0 12.5 9.8 71 2.8 NW 13 19 7 10 - - 3.6
21/02:50am 15.0 12.1 9.7 70 2.8 NW 15 19 8 10 - - 3.6
21/02:40am 15.2 11.5 9.5 69 3.1 NW 19 20 10 11 - - 3.6
21/02:30am 15.2 11.5 9.4 68 3.1 NW 19 24 10 13 - - 3.6
21/02:20am 15.4 12.5 9.6 68 3.1 NW 15 19 8 10 - - 3.6
21/02:10am 15.4 12.4 9.3 67 3.3 NW 15 19 8 10 - - 3.6
21/02:00am 15.0 12.7 8.9 67 3.2 NW 11 13 6 7 - - 3.6
21/01:50am 14.7 12.9 9.3 70 2.9 NNW 9 11 5 6 - - 3.6
21/01:40am 14.0 12.5 9.0 72 2.6 NNW 7 9 4 5 - - 3.6
21/01:30am 13.1 11.7 9.7 80 1.8 NNW 7 7 4 4 - - 3.6
21/01:20am 13.4 12.3 10.7 84 1.5 NW 7 7 4 4 - - 3.6
21/01:10am 13.6 12.5 10.6 82 1.6 NW 7 9 4 5 - - 3.6
21/01:00am 14.1 13.2 10.8 80 1.8 NNW 6 6 3 3 - - 3.6
21/12:50am 14.7 14.2 10.9 78 2.1 NNW 4 6 2 3 - - 3.6
21/12:40am 15.3 14.5 10.9 75 2.4 NW 6 6 3 3 - - 3.6
21/12:30am 15.6 14.5 10.0 69 3.0 NW 6 7 3 4 - - 3.6
21/12:20am 16.0 14.7 10.0 67 3.3 W 7 9 4 5 - - 3.6
21/12:10am 16.2 13.7 9.8 66 3.5 W 13 15 7 8 - - 3.6
21/12:00am 16.3 13.7 9.4 63 3.7 W 13 17 7 9 - - 3.6
 
Date/Time
EDT
Temp
°C
App
Temp
°C
Dew
Point
°C
Rel
Hum
%
Delta-T
°C
Wind Press
QNH
hPa
Press
MSL
hPa
Rain since
9am
mm
Dir  Spd
km/h
Gust
km/h
Spd
kts
Gust
kts
20/11:50pm 16.4 13.4 9.3 63 3.8 W 15 20 8 11 - - 3.6
20/11:40pm 16.4 13.1 9.4 63 3.8 W 17 19 9 10 - - 3.6
20/11:30pm 16.4 12.7 9.4 63 3.8 W 19 22 10 12 - - 3.6
20/11:20pm 15.9 12.5 9.0 63 3.7 W 17 24 9 13 - - 3.6
20/11:10pm 15.2 13.5 10.0 71 2.8 WNW 9 11 5 6 - - 3.6
20/11:00pm 15.2 14.1 10.7 74 2.5 NW 7 9 4 5 - - 3.6
20/10:50pm 15.6 14.5 10.6 72 2.7 WNW 7 9 4 5 - - 3.6
20/10:40pm 16.2 15.1 10.6 69 3.1 WNW 7 9 4 5 - - 3.6
20/10:30pm 16.5 14.9 10.1 66 3.5 WNW 9 11 5 6 - - 3.6
20/10:20pm 17.0 14.6 10.0 63 3.8 W 13 15 7 8 - - 3.6
20/10:10pm 17.3 14.4 9.7 61 4.1 W 15 17 8 9 - - 3.6
20/10:00pm 17.6 14.3 9.7 60 4.3 W 17 20 9 11 - - 3.6
20/09:50pm 17.7 14.4 9.5 58 4.5 W 17 22 9 12 - - 3.6
20/09:40pm 17.7 14.8 9.5 58 4.5 W 15 19 8 10 - - 3.6
20/09:30pm 17.8 15.0 10.1 60 4.2 W 15 17 8 9 - - 3.6
20/09:20pm 18.0 15.7 10.3 60 4.3 W 13 15 7 8 - - 3.6
20/09:10pm 18.3 15.5 10.1 59 4.5 WNW 15 19 8 10 - - 3.6
20/09:00pm 18.6 15.7 9.7 56 4.9 W 15 17 8 9 - - 3.6
20/08:50pm 18.7 15.9 9.9 56 4.8 W 15 19 8 10 - - 3.6
20/08:40pm 18.9 15.8 10.2 57 4.8 W 17 22 9 12 - - 3.6
20/08:30pm 19.2 15.4 9.9 55 5.1 W 20 22 11 12 - - 3.6
20/08:20pm 19.4 15.2 9.8 53 5.3 W 22 28 12 15 - - 3.6
20/08:10pm 19.7 15.7 10.6 55 5.1 W 22 28 12 15 - - 3.6
20/08:00pm 19.9 16.4 10.1 53 5.5 W 19 22 10 12 - - 3.6
20/07:50pm 20.1 16.0 10.2 53 5.5 W 22 26 12 14 - - 3.6
20/07:40pm 20.2 16.6 10.0 52 5.7 W 19 22 10 12 - - 3.6
20/07:30pm 20.5 16.4 10.0 51 5.9 WNW 22 28 12 15 - - 3.6
20/07:20pm 21.0 17.3 9.5 47 6.4 W 19 24 10 13 - - 3.6
20/07:10pm 21.0 15.6 9.4 47 6.4 WNW 28 33 15 18 - - 3.6
20/07:00pm 21.5 15.2 9.1 45 6.8 WNW 32 39 17 21 - - 3.6
20/06:50pm 21.6 15.0 8.4 42 7.2 WNW 33 41 18 22 - - 3.6
20/06:40pm 21.8 15.8 8.7 43 7.2 WNW 30 35 16 19 - - 3.6
20/06:30pm 22.1 16.6 9.0 43 7.2 WNW 28 37 15 20 - - 3.6
20/06:20pm 22.2 16.2 8.7 42 7.4 WNW 30 37 16 20 - - 3.6
20/06:10pm 22.7 16.6 8.3 39 7.9 WNW 30 33 16 18 - - 3.6
20/06:00pm 23.0 17.1 7.5 37 8.4 WNW 28 33 15 18 - - 3.6
20/05:50pm 23.0 18.3 9.4 42 7.6 NW 24 32 13 17 - - 3.6
20/05:40pm 23.1 18.1 8.2 38 8.2 WNW 24 28 13 15 - - 3.6
20/05:30pm 22.9 17.5 7.8 38 8.2 WNW 26 33 14 18 - - 3.6
20/05:20pm 23.2 18.8 9.1 40 7.8 NW 22 30 12 16 - - 3.6
20/05:10pm 23.0 18.9 10.2 44 7.3 NNW 22 30 12 16 - - 3.6
20/05:00pm 23.2 18.8 8.8 39 8.0 NW 22 28 12 15 - - 3.6
20/04:50pm 23.5 18.8 9.1 40 8.0 NW 24 30 13 16 - - 3.6
20/04:40pm 23.4 22.3 10.5 44 7.4 NW 7 13 4 7 - - 3.6
20/04:30pm 22.6 19.0 9.9 44 7.1 WNW 19 26 10 14 - - 3.6
20/04:20pm 22.8 20.0 10.0 44 7.2 WNW 15 20 8 11 - - 3.6
20/04:10pm 22.7 19.7 12.1 51 6.2 WSW 19 26 10 14 - - 3.6
20/04:00pm 22.2 18.3 8.7 42 7.4 WNW 19 24 10 13 - - 3.6
20/03:50pm 22.0 18.8 11.1 50 6.2 WNW 19 26 10 14 - - 3.6
20/03:40pm 22.1 18.5 10.7 48 6.5 NW 20 28 11 15 - - 3.6
20/03:30pm 22.0 18.5 10.3 47 6.6 WNW 19 30 10 16 - - 3.6
20/03:20pm 21.5 19.9 12.7 57 5.2 W 13 17 7 9 - - 3.6
20/03:10pm 21.3 20.4 11.3 53 5.7 SW 7 11 4 6 - - 3.6
20/03:00pm 20.3 19.0 11.3 56 5.1 S 9 17 5 9 - - 3.6
20/02:50pm 20.1 18.5 10.3 53 5.5 SW 9 11 5 6 - - 3.6
20/02:40pm 19.5 18.9 12.3 63 4.2 SW 7 11 4 6 - - 3.6
20/02:30pm 18.3 17.8 11.9 66 3.7 S 6 11 3 6 - - 3.6
20/02:20pm 17.3 14.1 11.8 70 3.1 SW 20 30 11 16 - - 3.6
20/02:10pm 16.9 13.6 11.5 70 3.0 WSW 20 30 11 16 - - 3.6
20/02:00pm 17.1 13.5 12.9 76 2.4 WSW 24 30 13 16 - - 3.6
20/01:50pm 17.5 14.4 13.3 76 2.4 WSW 22 26 12 14 - - 3.6
20/01:40pm 16.4 13.3 14.4 88 1.2 W 24 28 13 15 - - 3.6
20/01:30pm 15.6 12.7 13.9 90 1.0 W 22 28 12 15 - - 3.6
20/01:20pm 15.2 12.8 13.9 92 0.8 WSW 19 26 10 14 - - 1.8
20/01:10pm 17.8 14.5 14.9 83 1.7 WSW 26 33 14 18 - - 0.0
20/01:00pm 23.6 19.9 14.9 58 5.3 N 28 37 15 20 - - 0.0
20/12:50pm 24.6 21.6 14.7 54 6.1 NE 24 30 13 16 - - 0.0
20/12:40pm 24.4 23.3 15.4 57 5.6 NE 15 22 8 12 - - 0.0
20/12:30pm 23.9 22.4 15.4 59 5.3 ENE 17 26 9 14 - - 0.0
20/12:20pm 24.0 21.9 16.3 62 4.8 ENE 22 30 12 16 - - 0.0
20/12:10pm 25.0 23.5 15.3 55 6.0 NE 17 20 9 11 - - 0.0
20/12:00pm 24.7 22.9 15.6 57 5.7 NNE 19 24 10 13 - - 0.0
20/11:50am 24.8 22.2 14.8 53 6.2 NNE 22 30 12 16 - - 0.0
20/11:40am 24.5 22.1 15.5 57 5.6 NNE 22 28 12 15 - - 0.0
20/11:30am 24.5 22.8 15.7 58 5.5 NNE 19 24 10 13 - - 0.0
20/11:20am 23.8 22.0 16.0 61 4.9 NE 20 28 11 15 - - 0.0
20/11:10am 23.5 21.9 16.4 64 4.5 NE 20 24 11 13 - - 0.0
20/11:00am 23.3 22.9 16.3 64 4.4 NE 13 20 7 11 - - 0.0
20/10:50am 22.9 21.7 15.0 61 4.8 NNE 15 17 8 9 - - 0.0
20/10:40am 22.8 22.3 15.8 64 4.3 NE 13 17 7 9 - - 0.0
20/10:30am 22.2 23.2 15.4 65 4.2 E 4 7 2 4 - - 0.0
20/10:20am 22.2 22.6 16.3 69 3.7 ENE 9 17 5 9 - - 0.0
20/10:10am 22.0 22.5 15.6 67 4.0 ENE 7 13 4 7 - - 0.0
20/10:00am 21.6 21.3 15.4 68 3.8 NNE 11 15 6 8 - - 6.8
20/09:50am 21.5 21.8 16.1 71 3.4 NE 9 13 5 7 - - 6.8
20/09:40am 21.1 20.9 16.7 76 2.8 NE 13 15 7 8 - - 6.8
20/09:30am 20.8 20.7 16.9 78 2.4 ENE 13 19 7 10 - - 6.8
20/09:20am 20.2 20.1 16.0 77 2.6 ENE 11 15 6 8 - - 6.8
20/09:10am 19.6 19.3 16.4 82 2.0 ENE 13 17 7 9 - - 6.8
20/09:00am 19.0 18.2 16.2 84 1.7 ENE 15 19 8 10 - - 6.8
20/08:50am 19.4 19.1 16.4 83 1.9 E 13 17 7 9 - - 6.8
20/08:40am 19.3 18.5 16.2 82 1.9 ENE 15 17 8 9 - - 6.8
20/08:30am 18.9 20.3 16.5 86 1.5 NNW 4 9 2 5 - - 6.8
20/08:20am 18.5 20.1 16.9 90 1.0 SSW 4 6 2 3 - - 6.8
20/08:10am 18.0 19.5 16.6 91 0.9 S 4 6 2 3 - - 6.8
20/08:00am 17.2 18.2 16.3 94 0.6 S 6 7 3 4 - - 6.8
20/07:50am 16.6 17.5 16.2 97 0.2 S 6 6 3 3 - - 6.8
20/07:40am 16.5 17.8 16.2 98 0.2 SE 4 6 2 3 - - 6.8
20/07:30am 16.2 17.1 16.0 99 0.1 SSE 6 6 3 3 - - 6.8
20/07:20am 16.0 16.8 15.9 99 0.1 SSE 6 7 3 4 - - 6.8
20/07:10am 15.8 16.5 15.7 99 0.1 SE 6 7 3 4 - - 6.8
20/07:00am 15.0 16.2 15.0 100 0.0 SSW 2 4 1 2 - - 6.8
20/06:50am 15.3 15.9 15.3 100 0.0 E 6 9 3 5 - - 6.8
20/06:40am 14.8 14.6 14.8 100 0.0 ENE 9 11 5 6 - - 6.8
20/06:30am 13.9 14.0 13.9 100 0.0 NNE 6 9 3 5 - - 6.8
20/06:20am 14.1 14.3 14.1 100 0.0 NE 6 7 3 4 - - 6.8
20/06:10am 14.3 14.9 14.3 100 0.0 NE 4 6 2 3 - - 6.8
20/06:00am 14.5 15.2 14.5 100 0.0 ENE 4 4 2 2 - - 6.8
20/05:50am 14.1 14.3 14.1 100 0.0 NE 6 6 3 3 - - 6.8
20/05:40am 13.9 14.8 13.9 100 0.0 NNE 2 4 1 2 - - 6.8
20/05:30am 14.0 14.5 14.0 100 0.0 NNE 4 6 2 3 - - 6.8
20/05:20am 14.2 14.8 14.2 100 0.0 NNE 4 4 2 2 - - 6.8
20/05:10am 14.3 15.3 14.2 99 0.1 NNE 2 4 1 2 - - 6.8
20/05:00am 14.8 15.9 14.7 99 0.1 ENE 2 2 1 1 - - 6.8
20/04:50am 14.9 16.1 14.8 99 0.1 WSW 2 2 1 1 - - 6.8
20/04:40am 14.9 16.1 14.8 99 0.1 N 2 4 1 2 - - 6.8
20/04:30am 15.2 15.7 15.1 99 0.1 NNE 6 6 3 3 - - 6.8
20/04:20am 15.4 16.0 15.3 99 0.1 NE 6 6 3 3 - - 6.8
20/04:10am 15.5 16.1 15.3 99 0.1 NE 6 6 3 3 - - 6.8
20/04:00am 15.6 16.2 15.4 99 0.1 NE 6 6 3 3 - - 6.8
20/03:50am 15.7 16.8 15.6 99 0.1 NE 4 4 2 2 - - 6.8
20/03:40am 15.9 17.4 15.7 99 0.1 NNE 2 4 1 2 - - 6.8
20/03:30am 16.0 17.5 15.8 99 0.1 N 2 4 1 2 - - 6.8
20/03:20am 16.0 17.2 15.8 99 0.1 SE 4 6 2 3 - - 6.8
20/03:10am 16.0 16.8 15.8 99 0.1 ENE 6 7 3 4 - - 6.8
20/03:00am 16.0 16.8 15.8 99 0.1 NE 6 7 3 4 - - 6.8
20/02:50am 16.1 16.7 15.9 99 0.1 NE 7 9 4 5 - - 6.8
20/02:40am 16.4 17.3 16.1 98 0.2 ENE 6 7 3 4 - - 6.8
20/02:30am 16.6 17.6 16.3 98 0.2 NNE 6 6 3 3 - - 6.8
20/02:20am 16.8 17.9 16.5 98 0.2 NNW 6 6 3 3 - - 6.6
20/02:10am 17.0 18.9 16.6 97 0.2 ENE 2 4 1 2 - - 6.6
20/02:00am 17.1 18.6 16.7 97 0.2 NE 4 6 2 3 - - 6.6
20/01:50am 17.2 18.7 16.7 97 0.3 ENE 4 6 2 3 - - 6.6
20/01:40am 17.2 19.1 16.6 96 0.4 ESE 2 2 1 1 - - 6.6
20/01:30am 17.2 18.3 16.6 96 0.4 S 6 7 3 4 - - 6.6
20/01:20am 17.2 17.8 16.7 97 0.3 SE 9 11 5 6 - - 6.6
20/01:10am 17.2 17.8 16.8 97 0.2 SE 9 11 5 6 - - 6.6
20/01:00am 17.4 18.1 17.0 97 0.2 S 9 9 5 5 - - 6.6
20/12:50am 17.5 19.1 17.0 97 0.3 ESE 4 6 2 3 - - 6.6
20/12:40am 17.5 18.6 17.0 97 0.3 W 7 11 4 6 - - 6.6
20/12:30am 17.4 18.0 16.9 97 0.3 SE 9 15 5 8 - - 6.6
20/12:20am 17.4 17.3 17.0 97 0.2 E 13 15 7 8 - - 6.6
20/12:10am 17.5 18.6 17.0 97 0.3 E 7 11 4 6 - - 6.6
20/12:00am 17.5 18.7 16.9 96 0.4 ESE 6 7 3 4 - - 6.4
 
Date/Time
EDT
Temp
°C
App
Temp
°C
Dew
Point
°C
Rel
Hum
%
Delta-T
°C
Wind Press
QNH
hPa
Press
MSL
hPa
Rain since
9am
mm
Dir  Spd
km/h
Gust
km/h
Spd
kts
Gust
kts
19/11:50pm 17.6 19.2 17.0 96 0.4 SE 4 6 2 3 - - 6.2
19/11:40pm 17.6 18.9 17.1 97 0.3 SSE 6 6 3 3 - - 5.8
19/11:30pm 17.6 18.3 17.0 96 0.4 W 9 15 5 8 - - 5.2
19/11:20pm 17.9 19.2 17.1 95 0.5 NW 6 7 3 4 - - 2.6
19/11:10pm 18.4 20.5 17.2 93 0.8 ENE 2 4 1 2 - - 1.4
19/11:00pm 18.6 19.8 16.8 89 1.1 E 6 7 3 4 - - 0.4
19/10:50pm 19.1 19.2 16.4 84 1.7 E 11 13 6 7 - - 0.0
19/10:40pm 19.5 19.6 15.6 78 2.4 E 9 11 5 6 - - 0.0
19/10:30pm 19.6 19.7 15.5 77 2.5 ENE 9 11 5 6 - - 0.0
19/10:20pm 19.7 19.4 15.5 77 2.6 E 11 11 6 6 - - 0.0
19/10:10pm 19.8 19.9 15.4 76 2.7 E 9 13 5 7 - - 0.0
19/10:00pm 19.8 19.1 15.4 76 2.7 ENE 13 15 7 8 - - 0.0
19/09:50pm 19.9 19.6 15.5 76 2.7 E 11 15 6 8 - - 0.0
19/09:40pm 20.1 19.4 15.5 75 2.8 ENE 13 17 7 9 - - 0.0
19/09:30pm 20.2 19.2 15.5 74 2.9 ENE 15 17 8 9 - - 0.0
19/09:20pm 20.3 18.5 15.5 74 2.9 E 19 20 10 11 - - 0.0
19/09:10pm 20.4 18.4 15.4 73 3.1 E 20 26 11 14 - - 0.0
19/09:00pm 20.8 18.8 15.4 71 3.3 E 20 24 11 13 - - 0.0
19/08:50pm 21.0 19.1 15.1 69 3.6 ENE 19 24 10 13 - - 0.0
19/08:40pm 21.2 19.6 15.0 67 3.8 E 17 19 9 10 - - 0.0
19/08:30pm 21.5 20.2 14.9 66 4.0 E 15 20 8 11 - - 0.0
19/08:20pm 21.7 20.1 14.9 65 4.1 E 17 20 9 11 - - 0.0
19/08:10pm 22.1 19.8 14.6 62 4.6 ENE 20 24 11 13 - - 0.0
19/08:00pm 22.5 20.1 14.4 60 4.9 ENE 20 26 11 14 - - 0.0
19/07:50pm 22.8 20.2 13.7 56 5.5 ENE 20 24 11 13 - - 0.0
19/07:40pm 23.2 20.2 13.7 55 5.7 E 22 26 12 14 - - 0.0
19/07:30pm 23.8 20.8 13.6 52 6.1 ENE 22 28 12 15 - - 0.0
19/07:20pm 24.2 20.7 13.5 51 6.4 ENE 24 28 13 15 - - 0.0
19/07:10pm 24.4 20.5 13.2 49 6.7 ENE 26 32 14 17 - - 0.0
19/07:00pm 24.4 21.0 13.6 51 6.5 ENE 24 30 13 16 - - 0.0
19/06:50pm 24.6 20.5 13.9 51 6.5 ENE 28 33 15 18 - - 0.0
19/06:40pm 25.2 21.7 13.4 48 7.1 E 24 28 13 15 - - 0.0
19/06:30pm 25.8 21.9 13.2 45 7.6 ENE 26 30 14 16 - - 0.0
19/06:20pm 26.1 21.4 11.9 41 8.4 ENE 28 35 15 19 - - 0.0
19/06:10pm 26.2 21.8 12.9 43 8.0 ENE 28 35 15 19 - - 0.0
19/06:00pm 26.7 22.9 12.5 41 8.5 E 24 32 13 17 - - 0.0
19/05:50pm 26.9 22.9 13.1 42 8.3 ENE 26 32 14 17 - - 0.0
19/05:40pm 27.1 23.0 12.7 41 8.7 ENE 26 32 14 17 - - 0.0
19/05:30pm 27.0 21.8 11.7 38 9.1 ENE 30 33 16 18 - - 0.0
19/05:20pm 27.0 22.5 12.5 40 8.7 ENE 28 32 15 17 - - 0.0
19/05:10pm 27.7 23.7 11.7 37 9.5 ENE 24 28 13 15 - - 0.0
19/05:00pm 27.7 23.1 11.2 35 9.7 E 26 32 14 17 - - 0.0
19/04:50pm 27.8 23.0 11.5 36 9.6 ENE 28 35 15 19 - - 0.0
19/04:40pm 29.0 25.3 11.5 33 10.4 NE 22 30 12 16 - - 0.0
19/04:30pm 28.4 24.4 11.7 35 9.9 NE 24 30 13 16 - - 0.0
19/04:20pm 28.6 24.4 11.2 34 10.3 ENE 24 32 13 17 - - 0.0
19/04:10pm 28.2 24.7 11.0 34 10.1 ENE 20 28 11 15 - - 0.0
19/04:00pm 28.4 24.9 11.0 34 10.2 ENE 20 24 11 13 - - 0.0
19/03:50pm 28.6 24.7 10.7 32 10.5 ENE 22 32 12 17 - - 0.0
19/03:40pm 28.4 24.9 10.8 33 10.3 NE 20 28 11 15 - - 0.0
19/03:30pm 28.4 25.4 10.6 33 10.4 NE 17 22 9 12 - - 0.0
19/03:20pm 27.7 24.6 10.4 34 10.1 ENE 17 24 9 13 - - 0.0
19/03:10pm 28.3 25.3 10.8 33 10.3 NE 17 22 9 12 - - 0.0
19/03:00pm 28.0 24.3 9.4 31 10.6 E 19 24 10 13 - - 0.0
19/02:50pm 28.4 24.7 9.5 30 10.9 ENE 19 26 10 14 - - 0.0
19/02:40pm 27.6 25.1 11.1 35 9.7 ENE 15 20 8 11 - - 0.0
19/02:30pm 26.7 23.7 10.5 36 9.4 ENE 17 24 9 13 - - 0.0
19/02:20pm 27.1 25.6 10.4 35 9.7 ESE 9 15 5 8 - - 0.0
19/02:10pm 26.7 24.2 9.7 34 9.7 E 13 19 7 10 - - 0.0
19/02:00pm 26.4 24.7 10.0 35 9.4 ESE 9 19 5 10 - - 0.0
19/01:50pm 27.2 24.9 11.8 38 9.1 E 15 22 8 12 - - 0.0
19/01:40pm 26.9 23.8 11.6 38 9.0 E 19 22 10 12 - - 0.0
19/01:30pm 27.0 25.3 12.6 41 8.6 ENE 13 19 7 10 - - 0.0
19/01:20pm 26.9 24.6 13.1 42 8.3 NE 17 20 9 11 - - 0.0
19/01:10pm 26.3 23.7 13.1 44 8.0 NE 19 24 10 13 - - 0.0
19/01:00pm 25.4 24.3 13.0 46 7.4 NE 11 19 6 10 - - 0.0
19/12:50pm 26.6 26.1 13.9 45 7.8 ESE 9 13 5 7 - - 0.0
19/12:40pm 26.3 25.8 12.7 43 8.2 W 7 15 4 8 - - 0.0
19/12:30pm 26.2 25.9 13.3 45 7.8 WSW 7 13 4 7 - - 0.0
19/12:20pm 25.0 24.4 12.2 44 7.6 N 7 13 4 7 - - 0.0
19/12:10pm 24.6 22.5 12.5 46 7.2 NNE 15 17 8 9 - - 0.0
19/12:00pm 24.8 23.6 14.0 51 6.6 ENE 13 22 7 12 - - 0.0
19/11:50am 25.2 25.1 13.4 48 7.1 SW 6 7 3 4 - - 0.0
19/11:40am 24.3 24.8 14.1 53 6.2 WSW 4 7 2 4 - - 0.0
19/11:30am 23.0 22.9 13.8 56 5.5 NW 7 15 4 8 - - 0.0
19/11:20am 22.9 22.8 14.0 57 5.4 E 7 11 4 6 - - 0.0
19/11:10am 22.1 21.5 13.6 58 5.1 NE 9 13 5 7 - - 0.0
19/11:00am 21.8 21.2 13.6 59 4.9 ENE 9 13 5 7 - - 0.0
19/10:50am 21.6 21.6 14.3 63 4.4 NE 7 13 4 7 - - 0.0
19/10:40am 21.6 21.1 13.9 61 4.6 ENE 9 17 5 9 - - 0.0
19/10:30am 21.0 20.3 14.3 65 4.0 ENE 11 15 6 8 - - 0.0
19/10:20am 20.6 20.2 14.1 66 3.9 ENE 9 13 5 7 - - 0.0
19/10:10am 19.8 19.0 14.1 69 3.4 NE 11 15 6 8 - - 0.0
19/10:00am 19.4 18.6 14.0 71 3.2 NE 11 15 6 8 - - 0.0
19/09:50am 18.4 17.2 13.9 75 2.7 ENE 13 17 7 9 - - 0.0
19/09:40am 17.8 16.5 13.7 77 2.4 E 13 17 7 9 - - 0.0
19/09:30am 17.5 16.6 13.6 78 2.3 ENE 11 15 6 8 - - 0.0
19/09:20am 16.9 15.6 13.8 82 1.8 E 13 15 7 8 - - 0.0
19/09:10am 17.0 16.5 13.7 81 1.9 E 9 13 5 7 - - 0.0
19/09:00am 17.2 16.7 13.7 80 2.1 ENE 9 13 5 7 - - 0.0
19/08:50am 16.9 16.0 13.7 81 1.9 ENE 11 15 6 8 - - 0.0
19/08:40am 17.0 16.5 13.7 81 1.9 ENE 9 13 5 7 - - 0.0
19/08:30am 16.7 15.8 13.7 82 1.8 E 11 15 6 8 - - 0.0
19/08:20am 16.5 16.3 13.7 83 1.6 E 7 13 4 7 - - 0.0
19/08:10am 16.1 16.4 13.3 83 1.6 S 4 7 2 4 - - 0.0
19/08:00am 15.4 16.0 13.2 87 1.3 SW 2 4 1 2 - - 0.0
19/07:50am 14.7 14.9 13.2 91 0.9 SSW 4 6 2 3 - - 0.0
19/07:40am 14.0 14.2 13.0 94 0.6 ESE 4 4 2 2 - - 0.0
19/07:30am 13.2 13.2 12.5 95 0.4 ENE 4 4 2 2 - - 0.0
19/07:20am 12.8 13.1 12.3 97 0.3 NE 2 4 1 2 - - 0.0
19/07:10am 12.5 12.8 12.2 98 0.2 SW 2 4 1 2 - - 0.0
19/07:00am 12.2 12.4 11.9 98 0.2 SE 2 2 1 1 - - 0.0
19/06:50am 11.9 11.6 11.6 98 0.2 N 4 6 2 3 - - 0.0
19/06:40am 11.7 11.0 11.4 98 0.2 NE 6 7 3 4 - - 0.0
19/06:30am 12.0 12.2 11.8 99 0.1 ESE 2 4 1 2 - - 0.0
19/06:20am 11.5 11.2 11.3 99 0.1 ENE 4 4 2 2 - - 0.0
19/06:10am 11.5 11.5 11.2 98 0.2 S 2 2 1 1 - - 0.0
19/06:00am 11.4 11.4 11.1 98 0.2 NNE 2 4 1 2 - - 0.0
19/05:50am 11.4 11.0 11.0 97 0.2 NNE 4 4 2 2 - - 0.0
19/05:40am 12.2 12.0 11.9 98 0.2 ENE 4 6 2 3 - - 0.0
19/05:30am 11.9 11.6 11.6 98 0.2 ENE 4 4 2 2 - - 0.0
19/05:20am 12.0 11.7 11.5 97 0.3 NNE 4 4 2 2 - - 0.0
19/05:10am 12.2 12.4 11.8 97 0.2 E 2 2 1 1 - - 0.0
19/05:00am 12.4 12.6 11.8 96 0.3 W 2 4 1 2 - - 0.0
19/04:50am 12.5 12.4 12.0 97 0.3 NE 4 6 2 3 - - 0.0
19/04:40am 12.5 12.4 12.0 97 0.3 NNE 4 6 2 3 - - 0.0
19/04:30am 12.2 11.5 11.9 98 0.2 NE 7 9 4 5 - - 0.0
19/04:20am 12.0 11.1 11.5 97 0.3 NE 7 9 4 5 - - 0.0
19/04:10am 12.4 11.9 12.1 98 0.2 ENE 6 7 3 4 - - 0.0
19/04:00am 12.3 12.5 11.9 97 0.2 E 2 4 1 2 - - 0.0
19/03:50am 12.1 12.3 11.7 97 0.2 NE 2 2 1 1 - - 0.0
19/03:40am 12.1 12.3 11.7 97 0.2 W 2 4 1 2 - - 0.0
19/03:30am 12.3 12.9 11.9 97 0.2 CALM 0 2 0 1 - - 0.0
19/03:20am 12.1 12.2 11.6 97 0.3 WNW 2 4 1 2 - - 0.0
19/03:10am 12.1 12.2 11.6 97 0.3 N 2 4 1 2 - - 0.0
19/03:00am 12.5 12.6 11.4 93 0.6 NE 2 4 1 2 - - 0.0
19/02:50am 12.9 12.8 12.2 95 0.4 ENE 4 4 2 2 - - 0.0
19/02:40am 13.3 12.8 12.1 92 0.7 E 6 7 3 4 - - 0.0
19/02:30am 13.5 12.9 12.4 93 0.6 E 7 9 4 5 - - 0.0
19/02:20am 13.0 12.0 12.2 95 0.4 ENE 9 9 5 5 - - 0.0
19/02:10am 12.5 11.7 11.8 95 0.4 NE 7 11 4 6 - - 0.0
19/02:00am 12.5 12.7 11.9 96 0.3 ENE 2 4 1 2 - - 0.0
19/01:50am 12.7 12.9 11.7 94 0.6 ENE 2 4 1 2 - - 0.0
19/01:40am 13.2 12.8 12.3 94 0.5 ENE 6 7 3 4 - - 0.0
19/01:30am 13.3 13.1 11.9 91 0.8 NE 4 6 2 3 - - 0.0
19/01:20am 13.9 13.9 12.5 91 0.8 NE 4 6 2 3 - - 0.0
19/01:10am 14.6 14.7 12.6 88 1.1 ENE 4 6 2 3 - - 0.0
19/01:00am 15.2 15.4 13.0 87 1.3 ESE 4 6 2 3 - - 0.0
19/12:50am 15.5 15.3 12.9 84 1.5 E 6 6 3 3 - - 0.0
19/12:40am 15.7 15.5 12.9 83 1.6 E 6 6 3 3 - - 0.0
19/12:30am 15.9 15.7 12.9 82 1.7 ESE 6 7 3 4 - - 0.0
19/12:20am 16.1 15.7 13.0 82 1.8 ESE 7 9 4 5 - - 0.0
19/12:10am 16.3 15.2 13.0 81 1.9 ESE 11 17 6 9 - - 0.0
19/12:00am 16.3 15.2 13.0 81 1.9 ESE 11 17 6 9 - - 0.0
 
Date/Time
EDT
Temp
°C
App
Temp
°C
Dew
Point
°C
Rel
Hum
%
Delta-T
°C
Wind Press
QNH
hPa
Press
MSL
hPa
Rain since
9am
mm
Dir  Spd
km/h
Gust
km/h
Spd
kts
Gust
kts
18/11:50pm 16.4 15.7 13.1 81 1.9 ESE 9 13 5 7 - - 0.0
18/11:40pm 16.4 15.6 13.0 80 2.0 SE 9 11 5 6 - - 0.0
18/11:30pm 16.3 15.9 13.0 81 1.9 SE 7 9 4 5 - - 0.0
18/11:20pm 16.4 15.6 13.0 80 2.0 SSE 9 13 5 7 - - 0.0
18/11:10pm 16.4 15.3 13.0 80 2.0 SE 11 13 6 7 - - 0.0
18/11:00pm 16.5 15.0 13.0 80 2.0 SE 13 17 7 9 - - 0.0
18/10:50pm 16.5 15.7 12.9 79 2.1 SE 9 11 5 6 - - 0.0
18/10:40pm 16.5 16.0 12.8 79 2.1 SE 7 9 4 5 - - 0.0
18/10:30pm 16.4 15.9 12.7 79 2.1 SE 7 9 4 5 - - 0.0
18/10:20pm 16.5 16.2 12.6 78 2.2 SE 6 7 3 4 - - 0.0
18/10:10pm 16.4 16.0 12.5 78 2.2 SE 6 7 3 4 - - 0.0
18/10:00pm 16.5 16.6 12.6 78 2.2 S 4 6 2 3 - - 0.0
18/09:50pm 16.6 16.6 12.5 77 2.3 SSE 4 6 2 3 - - 0.0
18/09:40pm 16.8 16.4 12.5 76 2.5 SSE 6 7 3 4 - - 0.0
18/09:30pm 16.9 16.4 12.5 75 2.5 SE 7 9 4 5 - - 0.0
18/09:20pm 17.1 16.6 12.5 74 2.6 ESE 7 11 4 6 - - 0.0
18/09:10pm 17.2 16.8 12.5 74 2.7 ESE 6 7 3 4 - - 0.0
18/09:00pm 17.2 16.6 12.4 73 2.7 ESE 7 9 4 5 - - 0.0
18/08:50pm 17.1 16.5 12.3 73 2.7 ESE 7 9 4 5 - - 0.0
18/08:40pm 17.1 16.5 12.2 73 2.8 SE 7 9 4 5 - - 0.0
18/08:30pm 17.0 15.9 12.1 73 2.8 SE 9 13 5 7 - - 0.0
18/08:20pm 17.1 16.0 12.1 72 2.8 ESE 9 13 5 7 - - 0.0
18/08:10pm 17.2 15.4 12.1 72 2.9 ESE 13 19 7 10 - - 0.0
18/08:00pm 17.3 15.5 12.1 71 3.0 SE 13 19 7 10 - - 0.0
18/07:50pm 17.5 15.7 12.2 71 3.0 SE 13 20 7 11 - - 0.0
18/07:40pm 17.8 16.0 12.2 70 3.2 ESE 13 17 7 9 - - 0.0
18/07:30pm 18.1 16.0 12.3 69 3.3 ESE 15 19 8 10 - - 0.0
18/07:20pm 18.3 16.6 12.3 68 3.4 ESE 13 19 7 10 - - 0.0
18/07:10pm 18.3 15.4 12.3 68 3.4 SE 19 24 10 13 - - 0.0
18/07:00pm 18.6 15.8 12.5 67 3.5 SE 19 24 10 13 - - 0.0
18/06:50pm 18.9 16.1 12.5 66 3.7 SE 19 20 10 11 - - 0.0
18/06:40pm 19.0 16.0 12.6 66 3.7 ESE 20 22 11 12 - - 0.0
18/06:30pm 19.3 16.9 12.5 64 3.9 SE 17 19 9 10 - - 0.0
18/06:20pm 19.5 16.7 12.6 64 4.0 SE 19 24 10 13 - - 0.0
18/06:10pm 19.7 16.7 12.6 63 4.1 ESE 20 26 11 14 - - 0.0
18/06:00pm 20.1 17.1 12.6 62 4.4 SE 20 24 11 13 - - 0.0
18/05:50pm 20.6 17.8 12.5 59 4.7 SE 19 24 10 13 - - 0.0
18/05:40pm 20.7 17.9 12.7 60 4.7 ESE 19 24 10 13 - - 0.0
18/05:30pm 20.7 17.7 12.5 59 4.8 SE 20 24 11 13 - - 0.0
18/05:20pm 20.9 18.0 12.8 60 4.8 ESE 20 24 11 13 - - 0.0
18/05:10pm 21.0 18.2 12.5 58 5.0 SE 19 28 10 15 - - 0.0
18/05:00pm 21.2 18.2 12.6 58 5.0 ESE 20 24 11 13 - - 0.0
18/04:50pm 21.2 18.2 12.5 57 5.1 - 20 24 11 13 - - 0.0
18/04:40pm 21.8 18.9 12.8 56 5.3 E 20 28 11 15 - - 0.0
18/04:30pm 21.6 18.7 12.8 57 5.2 E 20 24 11 13 - - 0.0
18/04:20pm 21.4 18.0 12.6 57 5.2 ESE 22 26 12 14 - - 0.0
18/04:10pm 21.5 17.2 12.2 55 5.4 ESE 26 28 14 15 - - 0.0
18/04:00pm 21.6 18.1 12.3 55 5.4 E 22 26 12 14 - - 0.0
18/03:50pm 21.6 18.4 13.0 58 5.1 ESE 22 28 12 15 - - 0.0
18/03:40pm 21.3 17.5 12.3 56 5.2 ESE 24 30 13 16 - - 0.0
18/03:30pm 21.3 18.3 12.6 57 5.1 ESE 20 30 11 16 - - 0.0
18/03:20pm 21.4 18.4 12.7 57 5.1 ESE 20 26 11 14 - - 0.0
18/03:10pm 21.8 18.7 12.2 54 5.6 SE 20 24 11 13 - - 0.0
18/03:00pm 21.6 18.5 12.3 55 5.4 ESE 20 24 11 13 - - 0.0
18/02:50pm 22.2 19.2 12.6 54 5.6 ESE 20 28 11 15 - - 0.0
18/02:40pm 22.2 19.1 12.3 53 5.8 ESE 20 26 11 14 - - 0.0
18/02:30pm 22.0 18.9 12.1 53 5.8 SE 20 24 11 13 - - 0.0
18/02:20pm 22.3 20.1 12.2 52 5.9 SE 15 20 8 11 - - 0.0
18/02:10pm 21.6 18.4 11.8 53 5.7 E 20 26 11 14 - - 0.0
18/02:00pm 21.9 18.8 12.2 54 5.7 E 20 28 11 15 - - 0.0
18/01:50pm 21.4 18.6 12.5 57 5.2 ESE 19 24 10 13 - - 0.0
18/01:40pm 21.9 19.0 12.3 54 5.6 E 19 20 10 11 - - 0.0
18/01:30pm 21.6 19.1 12.2 55 5.5 ESE 17 20 9 11 - - 0.0
18/01:20pm 20.9 17.8 12.2 57 5.1 ESE 20 26 11 14 - - 0.0
18/01:10pm 21.5 19.3 12.1 55 5.5 SE 15 24 8 13 - - 0.0
18/01:00pm 20.7 18.2 12.2 58 4.9 SE 17 22 9 12 - - 0.0
18/12:50pm 21.0 18.8 12.1 56 5.2 E 15 20 8 11 - - 0.0
18/12:40pm 20.5 18.0 12.3 59 4.8 ESE 17 22 9 12 - - 0.0
18/12:30pm 20.4 17.4 12.1 59 4.8 ESE 19 22 10 12 - - 0.0
18/12:20pm 20.4 17.3 12.2 59 4.7 E 20 22 11 12 - - 0.0
18/12:10pm 20.4 18.2 12.2 59 4.7 SE 15 20 8 11 - - 0.0
18/12:00pm 19.9 17.2 11.7 59 4.7 SSE 17 22 9 12 - - 0.0
18/11:50am 19.7 17.2 12.2 62 4.3 SSE 17 20 9 11 - - 0.0
18/11:40am 19.3 17.1 12.2 63 4.1 SE 15 19 8 10 - - 0.0
18/11:30am 19.3 17.5 12.2 63 4.1 SE 13 19 7 10 - - 0.0
18/11:20am 18.8 16.7 12.3 66 3.7 SE 15 19 8 10 - - 0.0
18/11:10am 18.4 16.2 12.1 66 3.6 S 15 19 8 10 - - 0.0
18/11:00am 18.2 16.4 12.2 68 3.4 SSE 13 17 7 9 - - 0.0
18/10:50am 18.1 15.9 12.2 68 3.4 SSE 15 20 8 11 - - 0.0
18/10:40am 18.1 15.7 12.5 70 3.2 SSE 17 20 9 11 - - 0.0
18/10:30am 18.0 16.2 12.1 68 3.4 SE 13 17 7 9 - - 0.0
18/10:20am 17.8 16.1 12.3 70 3.2 SE 13 19 7 10 - - 0.0
18/10:10am 17.1 15.7 12.2 73 2.8 SSE 11 15 6 8 - - 0.0
18/10:00am 16.8 15.2 12.7 77 2.4 SSE 13 15 7 8 - - 0.0
18/09:50am 16.9 15.2 12.4 75 2.6 SE 13 17 7 9 - - 0.0
18/09:40am 16.8 15.1 12.4 75 2.5 SSE 13 19 7 10 - - 0.0
18/09:30am 16.6 14.9 12.6 77 2.3 SE 13 15 7 8 - - 0.0
18/09:20am 16.6 14.9 12.4 76 2.4 ESE 13 17 7 9 - - 0.0
18/09:10am 16.5 14.8 12.6 78 2.2 SE 13 20 7 11 - - 0.0
18/09:00am 16.4 15.5 12.6 78 2.2 SE 9 15 5 8 - - 0.0
18/08:50am 16.2 14.9 12.6 79 2.1 SSE 11 15 6 8 - - 0.0
18/08:40am 16.2 15.7 12.7 80 2.0 SSE 7 11 4 6 - - 0.0
18/08:30am 15.9 15.6 12.7 81 1.8 SE 6 9 3 5 - - 0.0
18/08:20am 15.7 14.9 12.8 83 1.7 SSE 9 11 5 6 - - 0.0
18/08:10am 15.6 14.8 12.9 84 1.5 SSE 9 11 5 6 - - 0.0
18/08:00am 15.5 15.1 12.9 84 1.5 SSE 7 11 4 6 - - 0.0
18/07:50am 15.5 15.1 12.9 84 1.5 SSE 7 13 4 7 - - 0.0
18/07:40am 15.4 14.6 12.8 84 1.5 SSE 9 13 5 7 - - 0.0
18/07:30am 15.4 14.6 13.0 85 1.4 SSE 9 11 5 6 - - 0.0
18/07:20am 15.4 14.6 12.8 84 1.5 SSE 9 13 5 7 - - 0.0
18/07:10am 15.5 14.7 12.8 84 1.5 SSE 9 15 5 8 - - 0.0
18/07:00am 15.5 14.3 12.7 83 1.6 SE 11 15 6 8 - - 0.0
18/06:50am 15.5 14.3 12.7 83 1.6 SE 11 15 6 8 - - 0.0
18/06:40am 15.5 14.6 12.7 83 1.6 SE 9 15 5 8 - - 0.0
18/06:30am 15.5 14.6 12.7 83 1.6 SSE 9 13 5 7 - - 0.0
18/06:20am 15.5 14.3 12.8 84 1.5 SSE 11 15 6 8 - - 0.0
18/06:10am 15.5 14.3 12.7 83 1.6 SSE 11 15 6 8 - - 0.0
18/06:00am 15.6 14.0 12.7 83 1.7 SSE 13 15 7 8 - - 0.0
18/05:50am 15.6 14.4 12.7 83 1.7 SSE 11 19 6 10 - - 0.0
18/05:40am 15.7 14.5 12.8 83 1.7 SE 11 15 6 8 - - 0.0
18/05:30am 15.6 15.2 13.0 84 1.5 SSE 7 11 4 6 - - 0.0
18/05:20am 15.6 15.2 13.0 84 1.5 SSE 7 11 4 6 - - 0.0
18/05:10am 15.6 15.2 13.0 84 1.5 SSE 7 11 4 6 - - 0.0
18/05:00am 15.6 15.2 13.0 84 1.5 S 7 11 4 6 - - 0.0
18/04:50am 15.6 15.2 13.0 84 1.5 SSE 7 9 4 5 - - 0.0
18/04:40am 15.7 15.5 13.0 84 1.6 SSE 6 9 3 5 - - 0.0
18/04:30am 15.7 15.3 13.0 84 1.6 SSE 7 7 4 4 - - 0.0
18/04:20am 15.7 14.9 13.0 84 1.6 SSE 9 11 5 6 - - 0.0

Latest Capital City Observations: Canberra | Sydney | Melbourne | Brisbane | Adelaide | Perth | Hobart | Darwin

Other formats

Comma delimited format used in spreadsheet applications
http://www.bom.gov.au/fwo/IDN60903/IDN60903.99764.axf

JavaScript Object Notation format (JSON) in row-major order
http://www.bom.gov.au/fwo/IDN60903/IDN60903.99764.json

Data quality

Most of these data are generated automatically and are frequently updated. Quality checks on data are not normally performed. It is possible for incorrect values to appear. Refer to information at About Latest Weather Observations and please check the disclaimer before using these data.